Rodrygo Alves

Scout - Nautico
17 Feb 2028
Thursday
Process

Personality

Adaptability (7) Ambition (11) Controversy (15) Loyalty (8) Pressure (1) Professionalism (6) Sportsmanship (15) Temperament (19)

Profile

Coaching Style Democratic
License National A
Determination 5
Man Management 11
Motivating 12
Discipline 5
Job Satisfaction
100%
Fatigue
0%
Role Scout
Wage 57.9K p/w
Contract 14.03.2029

Performance

Behaviour Good
Training Effectiveness
35%
Player Development
55%
Injury Prevention
40%
Tactical Implementation
20%

Recent Events

Attended a recruitment meeting now
Recommended a transfer target now
Attended a recruitment meeting 7d ago
Recommended a transfer target 7d ago
Attended a recruitment meeting 7d ago
Attended a recruitment meeting 7d ago
Attended a recruitment meeting 14d ago
Attended a recruitment meeting 14d ago

Currently Monitoring

130
Player Club Status Ability Confidence Watched Last Observed Latest Vote
Carlos Júnior Botafogo Active 113 / 117 51% 1 27.12.2027 -
Olaniyi Saheed Kwara United Active 103 / 81 40% 5 16.12.2027 -
Luis Otávio Colorado Rapids Active 123 / 117 40% 4 16.12.2027 -
Gift Udoh Ikorodu City Active 86 / 92 40% 9 30.11.2027 -
Giovanni Leoni Bradford City Active 153 / 159 40% 1 29.11.2027 -
Ronan Kpakio Cardiff City Active 119 / 110 40% 1 29.11.2027 -
João Teixeira Porto Active 102 / 123 40% 4 27.11.2027 -
Eduardo Felicíssimo Sporting CP Active 105 / 116 40% 5 27.11.2027 -
Kauã Moraes Cruzeiro Active 131 / 140 40% 4 25.11.2027 -
Juan Camilo Córdoba Deportivo Pereira Active 84 / 79 40% 3 25.11.2027 -
Daniel Costa Sporting CP Active 98 / 114 40% 3 23.11.2027 -
Matías Canedo Rampla Juniors Active 77 / 84 40% 3 23.11.2027 -
Lucas Camejo River Plate Active 82 / 85 40% 2 21.11.2027 -
Hosea Michael Remo Stars Active 79 / 91 40% 3 19.11.2027 -
David Damboama El-Kanemi Warriors Active 89 / 70 40% 8 19.11.2027 -
Gonçalo Oliveira Benfica Active 121 / 111 40% 7 18.11.2027 -
Hervin Goyes Deportivo Pasto Active 113 / 100 40% 4 18.11.2027 -
Marvelous Freedom Ikorodu City Active 95 / 85 40% 2 16.11.2027 -
Onuorah Onyedika Kun Khalifat Active 65 / 108 40% 6 15.11.2027 -
Ignacio Fernández Boston River Active 82 / 93 40% 2 15.11.2027 -
Godwin Oham Warri Wolves Active 88 / 75 40% 6 13.11.2027 -
Tiago Gordillo San Miguel Active 91 / 103 40% 2 13.11.2027 -
Martim Cunha Porto Active 120 / 98 40% 4 08.11.2027 -
Ricky Atletico Venezuela Active 90 / 105 40% 4 08.11.2027 -
Joel Ezra Enyimba Active 96 / 112 40% 5 06.11.2027 -
Daniel Banjaqui Benfica Active 124 / 135 40% 2 05.11.2027 -
Mauro Carrizo Atlético Tucumán Active 114 / 118 40% 2 01.11.2027 -
Mads Bomholt Stabaek Active 97 / 93 40% 5 29.10.2027 -
Mikkel Hope Haugesund Active 112 / 126 40% 5 27.10.2027 -
David Asayure Lokomotivi Active 75 / 94 40% 1 26.10.2027 -
Figueiredo Sampaio Correa Active 83 / 107 40% 5 25.10.2027 -
Tiago Freitas Benfica Active 106 / 139 40% 1 23.10.2027 -
Mohammed Habib Sarwari Kariobangi Sharks Active 55 / 93 40% 2 21.10.2027 -
Junior Machis Atletico Venezuela Active 76 / 71 40% 2 16.10.2027 -
Bahia Criciuma Active 118 / 119 40% 1 16.10.2027 -
Alejandro Almaraz Nueva Chicago Active 100 / 126 40% 3 08.10.2027 -
Mpho Khethang AS Police Active 89 / 92 40% 2 27.09.2027 -
Jofrank Istifanus Nasarawa United Active 79 / 102 40% 1 23.09.2027 -
Mbekezeli Mbokazi Chicago Fire Active 136 / 122 40% 1 13.09.2027 -
André Lucas Sampaio Correa Active 80 / 90 40% 1 13.09.2027 -
João Capucho Benfica Active 95 / 122 40% 2 12.07.2027 -
Davide Bartesaghi AC Milan Active 153 / 139 40% 1 12.07.2027 -
Adam Bakoune Ospitaletto Active 106 / 119 40% 2 08.06.2027 -
Cheveyo Tsawa Club Brugge Active 113 / 126 40% 1 08.06.2027 -
Pablo Internacional Active 96 / 94 51% 1 06.06.2027 Monitor
Dion Beljo Standard Liege Active 131 / 132 66% 1 01.06.2027 Approve
Christos Mouzakitis Hull City Active 144 / 141 40% 1 01.06.2027 -
Lewis Morgan SuperSport United Active 145 / 140 40% 6 28.05.2027 -
Richard Koné Queens Park Rangers Active 107 / 115 40% 2 27.05.2027 -
Ilias Chair Queens Park Rangers Active 111 / 134 40% 2 26.05.2027 -
Tom Fellows Southampton Active 144 / 127 40% 2 25.05.2027 -
Caleb Yirenkyi Coventry City Active 123 / 133 40% 2 23.05.2027 Needs More Info
Cian Ashford Cardiff City Active 109 / 121 40% 2 23.05.2027 -
Alex Lowry Wycombe Wanderers Active 113 / 125 40% 1 22.05.2027 -
Tatsuhiro Sakamoto Coventry City Active 135 / 131 40% 1 20.05.2027 -
Ronald Swansea City Active 143 / 136 40% 1 20.05.2027 -
Ollie Tanner Cardiff City Active 122 / 120 40% 3 17.05.2027 -
Alex Robertson Cardiff City Active 137 / 119 40% 1 15.05.2027 -
Ryoya Morishita Blackburn Rovers Active 117 / 111 40% 2 13.05.2027 -
Welington Southampton Active 118 / 133 40% 1 12.05.2027 -
Ianis Hagi Alanyaspor Active 136 / 114 40% 1 12.05.2027 -
Leandro Martins Benfica Active 78 / 83 40% 2 09.05.2027 -
Tyreece Campbell Charlton Athletic Active 105 / 127 40% 2 09.05.2027 -
Christ Inao Oulaï Fiorentina Active 130 / 152 40% 1 09.05.2027 -
Isaiah Jones Luton Town Active 140 / 106 40% 2 07.05.2027 -
Callum O'Hare Sheffield United Active 149 / 112 40% 1 07.05.2027 -
Daniel Kyerewaa Reading Active 100 / 124 40% 1 05.05.2027 -
Stanley Mills Oxford United Active 117 / 111 40% 2 04.05.2027 -
Ethan Williams Peterborough United Active 122 / 106 40% 1 03.05.2027 -
Jack McGlynn Stoke City Active 136 / 119 40% 1 02.05.2027 -
Tshepang Moremi Orlando Pirates Active 98 / 125 40% 2 01.05.2027 -
Zian Flemming Ipswich Town Active 133 / 150 40% 1 30.04.2027 -
Riley Owen Trento Active 89 / 104 40% 1 26.04.2027 -
Jan Bürger Gillingham Active 114 / 126 40% 1 25.04.2027 -
Santi García Gil Vicente Active 118 / 130 40% 2 23.04.2027 -
Samu Vitoria Guimaraes Active 142 / 105 40% 3 23.04.2027 -
Pablo Fernández Leiria Active 118 / 119 40% 1 22.04.2027 -
Ole Pohlmann Rio Ave Active 109 / 137 40% 1 22.04.2027 -
André Silva Tondela Active 121 / 119 40% 4 21.04.2027 Monitor
Martín Tejón Maritimo Active 114 / 125 40% 2 21.04.2027 -
Naïs Djouahra Arouca Active 110 / 119 40% 1 19.04.2027 -
Matías Gómez Granada Active 120 / 138 40% 1 18.04.2027 -
Zaïd BafdilI Sporting CP Active 104 / 84 40% 1 18.04.2027 -
Joel McGregor Swindon Town Active 106 / 117 40% 1 17.04.2027 -
Derensili Sanches Fernandes Huddersfield Town Active 128 / 118 40% 2 15.04.2027 -
Simo Maritimo Active 133 / 96 40% 3 15.04.2027 -
Francisco Moura Lusitânia Lourosa Active 141 / 134 40% 2 14.04.2027 -
Renato Sanches AVS Active 117 / 137 40% 2 10.04.2027 -
Luis Quintero Torreense Active 112 / 117 40% 4 09.04.2027 -
Manu Pozo Torreense Active 126 / 100 40% 2 09.04.2027 -
Nabil Touaizi Alverca Active 120 / 113 40% 2 08.04.2027 -
Alfonso Trezza Arouca Active 133 / 103 40% 1 06.04.2027 -
Makan Aïko Tondela Active 127 / 100 40% 2 04.04.2027 -
Benny Feirense Active 115 / 129 40% 1 02.04.2027 -
Lorougnon Gohi Académico de Viseu Active 112 / 118 40% 3 01.04.2027 -
Cristian Ferreira Académico de Viseu Active 118 / 113 40% 2 26.03.2027 -
Rafik Guitane Estoril Praia Active 142 / 128 40% 2 23.03.2027 -
Luís Esteves Atlas Active 125 / 131 40% 1 23.03.2027 -
Figueiredo Alverca Active 139 / 131 40% 1 21.03.2027 -
Dinis Pinto Moreirense Active 117 / 114 40% 1 21.03.2027 -
Emi Rodriguez Leon Active 119 / 122 40% 1 20.03.2027 -
Jesús Ricardo Angulo Toluca Active 142 / 142 40% 1 19.03.2027 -
Mduduzi Shabalala Kaizer Chiefs Active 97 / 96 40% 1 18.03.2027 -
Jordan van der Gaag Leiria Active 93 / 125 40% 1 30.11.2026 -
Jordan Holsgrove Estoril Praia Active 113 / 147 40% 1 24.11.2026 -
Jalen Blesa Rio Ave Active 99 / 109 40% 1 20.11.2026 -
Gustavo Silva Vitoria Guimaraes Active 111 / 132 40% 2 16.11.2026 -
Caio Alexandre Bahia Active 138 / 127 40% 1 15.11.2026 -
Negueba Mirassol Active 122 / 136 40% 1 07.11.2026 -
Rodrigo Ramos Moreirense Active 102 / 104 40% 1 06.11.2026 -
Lohann Doucet Vitoria Guimaraes Active 115 / 141 40% 1 04.11.2026 -
William Gomes Porto Active 139 / 143 40% 2 24.10.2026 -
Jan Virgili Club Brugge Active 116 / 154 40% 1 23.10.2026 -
João Abreu Porto Active 97 / 82 40% 1 23.10.2026 -
André Oliveira Porto Active 86 / 115 40% 1 19.10.2026 -
João Simões Sporting CP Active 113 / 136 40% 4 18.10.2026 -
Rayan Lucas Alverca Active 102 / 131 40% 1 18.10.2026 -
Lovro Zvonarek Estrela da Amadora Active 135 / 128 40% 2 17.10.2026 -
Pedro Bondo Famalicao Active 134 / 115 40% 1 17.10.2026 -
Joseph Nduquidi Farense Active 115 / 125 40% 1 15.10.2026 -
Othmane Maamma Watford Active 119 / 138 40% 1 15.10.2026 -
Mathias De Amorim Famalicao Active 134 / 145 40% 1 12.10.2026 -
Martim Fernandes Porto Active 144 / 160 40% 3 10.10.2026 -
Bernardes Benfica Active 93 / 106 40% 2 09.10.2026 -
Salvador Blopá Casa Pia Active 111 / 118 40% 1 11.09.2026 -
Gonçalo Sousa Porto Active 112 / 94 40% 1 07.09.2026 -
Bénie Traoré New York City Active 117 / 135 40% 1 04.08.2026 -
Jesse Derry Chelsea Active 83 / 107 40% 1 02.08.2026 -
Gustaf Lagerbielke Braga Active 141 / 154 40% 1 01.08.2026 -
Vitor Carvalho Braga Active 144 / 130 40% 1 01.08.2026 -